Swat shr 4100 прошивка

Swat shr 4100 прошивка

Добавлено 09.10.2018, 23:08:

Всем привет. Меня интересует пару моментов по моей магнитоле.
1. Существует ли вообще прошивка на магнитолу?
2. Если есть прошивка, то как обновить ПО? В самом меню магнитолы есть функция Обновления ПО.
3. Как зайти в сервесное меню?

ответ поддержки по поводу неработоспособности GPS модуля:
Дело в том, что в этом аппарате за навигацию отвечает модуль на Windows, у нас (техподдержки) нет на него «прошивки» по той причине, что ни разу такое не было нужно.

Есть софт на сам аппарат, но он никак Вам не поможет.

Сообщение отредактировал crazygoner — 29.01.19, 17:33

автомагнитола swat chr-4220 2din видео и камера заднего вида включаются на одну две секунды и потом на фоне заставка, воспроизведение видео во время движения невозможно.даже если машина стоит. делал ресет не помогает. может кто подскажет где искать

Сообщение отредактировал magelan13 — 04.09.19, 09:39

===PortTool Log v. 1, 0, 0, 24 ===
PortTool execution path: \StorageCard\PortTool_v1.0.0.24\PortTool.exe
CPU: ARM rev.3
Path to navi: [ ]
USB: [Async/Flash card/CardReader]
UUID in About: [yes/no]
Internet: [yes/no]
RAM: total: 101 Mb, avail: 85 Mb
UUID: 16 byte: EC 00 70 F8 B5 1B 33 38 — 32 38 30 30 11 11 07 0D (EC0070F8B51B3338323830301111070D)
UUID check: 0
DeviceID: 52 byte: 53 00 65 00 6D 00 69 00 63 00 6F 00 6E 00 64 00 75 00 63 00 74 00 6F 00 72 00 20 00 45 00 56 00 42 00 00 00 — EC 00 70 F8 B5 1B 33 38 32 38 30 30 11 11 07 0D
Screen: 800×480 16 bit
OS Version: 6
Battery percent: 0
wininet.dll: yes
OEM info: ‘MStar Semiconductor’ 40 byte: 4D 00 53 00 74 00 61 00 72 00 20 00 53 00 65 00 6D 00 69 00 63 00 6F 00 6E 00 64 00 75 00 63 00 74 00 6F 00 72 00 00 00
THUMB: yes
MemAccess: Mapping — 411 ms malloc() — 417 ms Factor: 1 (ok)
FlashCards
name: NFlash
name: NandBlk
Disk size: 59.05 Mb 61915136 bytes
Write/Read test: Ok
Mapping: AVR Write: 2632 KB/s
AVR Read: 397 KB/s
Mapping time: 21 sec, 100 %

name: GPSdata
name: NandBlk
Disk size: 9.94 Mb 10427392 bytes
Write/Read test: Ok
Mapping: AVR Write: 1615 KB/s
AVR Read: 394 KB/s
Mapping time: 22 sec, 100 %

name: StorageCard
name: DSK2:
Disk size: 30211.00 Mb 1613758464 bytes
flashID: 37 33 30 31 33 43 45 38 00 00 . 38 32
flashID (for registration): 8273013CE800
Write/Read test: Ok
Mapping: AVR Write: 1237 KB/s
AVR Read: 0 KB/s
Mapping: Failed
Mapping time: 35 sec, 0 %

GPS:
$GPRMC,100912.000,A,5550.1978,N,04905.5238,E,0.0,0 .0,110500. A*66
$GPGGA,100912.000,5550.1978,N,04905.5238,E,2,06,2. 0,85.47,M,-1.00,M,,0000*74
Port: COM1:
Rate: 57600

No errors in NMEA 0

$GPRMC,100917.000,A,5550.1979,N,04905.5240,E,0.0,0 .0,110500. A*6D
$GPGGA,100917.000,5550.1979,N,04905.5240,E,2,06,2. 0,85.58,M,-1.00,M,,0000*71
Port: COM2:
Rate: 57600

No errors in NMEA 0

$GPRMC,100922.000,A,5550.1980,N,04905.5242,E,0.0,0 .0,110500. A*6F
$GPGGA,100922.000,5550.1980,N,04905.5242,E,2,06,2. 0,85.96,M,-1.00,M,,0000*71
$GPRMC,100926.0
Port: COM3:
Rate: 57600

No errors in NMEA 0

—Parallels call serial ports—

$GPRMC,101058.000,A,5550.1993,N,04905.5264,E,0.0,0 .0,110500. A*6C
$GPGGA,101058.000,5550.1993,N,04905.5264,E,2,06,2. 0,88.92,M,-1.00,M,,0000*7B
$GPRMC,10110
Port: COM3:
Rate: 57600

No errors in NMEA 0

String test: Ok
System date/time: (0:06:47, 2008-1-1)
===[Audio test]===
Count of audio devices: 3
=[End audio test]=
==================

Источник

Swat shr 4100 прошивка

Добавлено 09.10.2018, 23:08:

Всем привет. Меня интересует пару моментов по моей магнитоле.
1. Существует ли вообще прошивка на магнитолу?
2. Если есть прошивка, то как обновить ПО? В самом меню магнитолы есть функция Обновления ПО.
3. Как зайти в сервесное меню?

ответ поддержки по поводу неработоспособности GPS модуля:
Дело в том, что в этом аппарате за навигацию отвечает модуль на Windows, у нас (техподдержки) нет на него «прошивки» по той причине, что ни разу такое не было нужно.

Есть софт на сам аппарат, но он никак Вам не поможет.

Сообщение отредактировал crazygoner — 29.01.19, 17:33

автомагнитола swat chr-4220 2din видео и камера заднего вида включаются на одну две секунды и потом на фоне заставка, воспроизведение видео во время движения невозможно.даже если машина стоит. делал ресет не помогает. может кто подскажет где искать

READ  Using exception in if statement

Сообщение отредактировал magelan13 — 04.09.19, 09:39

===PortTool Log v. 1, 0, 0, 24 ===
PortTool execution path: \StorageCard\PortTool_v1.0.0.24\PortTool.exe
CPU: ARM rev.3
Path to navi: [ ]
USB: [Async/Flash card/CardReader]
UUID in About: [yes/no]
Internet: [yes/no]
RAM: total: 101 Mb, avail: 85 Mb
UUID: 16 byte: EC 00 70 F8 B5 1B 33 38 — 32 38 30 30 11 11 07 0D (EC0070F8B51B3338323830301111070D)
UUID check: 0
DeviceID: 52 byte: 53 00 65 00 6D 00 69 00 63 00 6F 00 6E 00 64 00 75 00 63 00 74 00 6F 00 72 00 20 00 45 00 56 00 42 00 00 00 — EC 00 70 F8 B5 1B 33 38 32 38 30 30 11 11 07 0D
Screen: 800×480 16 bit
OS Version: 6
Battery percent: 0
wininet.dll: yes
OEM info: ‘MStar Semiconductor’ 40 byte: 4D 00 53 00 74 00 61 00 72 00 20 00 53 00 65 00 6D 00 69 00 63 00 6F 00 6E 00 64 00 75 00 63 00 74 00 6F 00 72 00 00 00
THUMB: yes
MemAccess: Mapping — 411 ms malloc() — 417 ms Factor: 1 (ok)
FlashCards
name: NFlash
name: NandBlk
Disk size: 59.05 Mb 61915136 bytes
Write/Read test: Ok
Mapping: AVR Write: 2632 KB/s
AVR Read: 397 KB/s
Mapping time: 21 sec, 100 %

name: GPSdata
name: NandBlk
Disk size: 9.94 Mb 10427392 bytes
Write/Read test: Ok
Mapping: AVR Write: 1615 KB/s
AVR Read: 394 KB/s
Mapping time: 22 sec, 100 %

name: StorageCard
name: DSK2:
Disk size: 30211.00 Mb 1613758464 bytes
flashID: 37 33 30 31 33 43 45 38 00 00 . 38 32
flashID (for registration): 8273013CE800
Write/Read test: Ok
Mapping: AVR Write: 1237 KB/s
AVR Read: 0 KB/s
Mapping: Failed
Mapping time: 35 sec, 0 %

GPS:
$GPRMC,100912.000,A,5550.1978,N,04905.5238,E,0.0,0 .0,110500. A*66
$GPGGA,100912.000,5550.1978,N,04905.5238,E,2,06,2. 0,85.47,M,-1.00,M,,0000*74
Port: COM1:
Rate: 57600

No errors in NMEA 0

$GPRMC,100917.000,A,5550.1979,N,04905.5240,E,0.0,0 .0,110500. A*6D
$GPGGA,100917.000,5550.1979,N,04905.5240,E,2,06,2. 0,85.58,M,-1.00,M,,0000*71
Port: COM2:
Rate: 57600

No errors in NMEA 0

$GPRMC,100922.000,A,5550.1980,N,04905.5242,E,0.0,0 .0,110500. A*6F
$GPGGA,100922.000,5550.1980,N,04905.5242,E,2,06,2. 0,85.96,M,-1.00,M,,0000*71
$GPRMC,100926.0
Port: COM3:
Rate: 57600

No errors in NMEA 0

—Parallels call serial ports—

$GPRMC,101058.000,A,5550.1993,N,04905.5264,E,0.0,0 .0,110500. A*6C
$GPGGA,101058.000,5550.1993,N,04905.5264,E,2,06,2. 0,88.92,M,-1.00,M,,0000*7B
$GPRMC,10110
Port: COM3:
Rate: 57600

No errors in NMEA 0

String test: Ok
System date/time: (0:06:47, 2008-1-1)
===[Audio test]===
Count of audio devices: 3
=[End audio test]=
==================

Источник

Swat shr 4100 прошивка

Обсуждение SWAT CHR-6100 — Обсуждение
Автомагнитола и устройство на WinCE, WM
Обсуждение »
Для сравнения устройства с конкурентами и по вопросам выбора устройств обращайтесь в раздел:

Сообщение отредактировал ES. — 20.08.20, 13:35

Достоинства
Экран. И ещё раз экран. Видно почти всегда. И со стороны пассажира и со стороны водителя. «Слепнет» только тогда, когда яркое солнце напрямую лупит в экран, т.е. сзади. Похоже матрица TN, но инверсия цвета заметна только, когда смотришь «сильно снизу». С остальных сторон без вопросов. Цветность передаётся без искажений. Ёмкостной дисплей. Чувствительность отличная. К звуку нареканий нет. Я не претендую на знатока и ценителя автозвука, но как рядового пользователя всё устраивает. Радио работает. Приём достаточно уверенный. Бонусом на экране плёночка. Приклеена ровно, даже отдирать не стал.
Недостатки
По мелочи. Расположение ярлыков на рабочем столе. Мне, к примеру, на фиг не нужна кнопка «передняя камера» на первой странице. Зато «USB2» спрятали на вторую. И поменять местами нет возможности. Нет логотипа ВАЗ. Зато «Протон» и «Ягуар» есть. Что-то мне кажется, что магнитолу купять в подавляющем случае владельцы «ВАЗ», а не «Ягуаров» и «Протонов». Хоть и мелочи, но оставляют осадочек.
Комментарий
Отдельным пунктом отмечу навигацию (СитиГид). Работает, даже можно сказать без тормозов. Но надо заморочиться и обновить магнитолу. Тех. поддержка по запросу высылает новую версию прошивки модуля GPS. В комплекте шла версия 7.8. Под эту версию карт обновлялись, формат cgmap, «столетвобед». Формат карт «cgnet» понимает версия 7.9. В личном кабинете версии нет. Но если зайти на оф. страницу «Пробки.Нет» в ВК, то на стене можно найти ссылку на версию 7.9.0.236, которая отлично работает с картами «cgnet». Там же можно найти и «updater»карт. Обновляет по федеральным округам. Вынимаем флешку из магнитолы, вставляем в комп. Запускаем «обновляльщик». Указываем путь к папке с картами, галочкамы тыкаем нужные карты и обновляем. Но есть ложка дёгтя. Во время звукового оповещения навигацией, прекращается проигрывание музыки или радио. При частых манёврах не очень приятно. Лечится выключением голосовых подсказок в навигации.

READ  Numeric or value error oracle exception

Всем привет. Магнитола теряет флешку в рандомное время (с обоих портов). Кто-нибудь сталкивался?

Добавлено 22.12.2019, 14:32:

И ещё + вопрос)) у кого-нибудь получилось обучить кнопки на лачетти?

Мне магнитолу товарищь отдал, там стояло ПО Навител

Время постоянно слетает, обратился в техподдержку с этим вопросом

Навител вообще криво время видит, бесит ужасно

По поводу качества звука, конечно нечего ждать, звук будет на уровне штатки лады гранты, там стоит китайская микруха тда7388, лечится заменой на тда7850 (на 25 ног) и емкостным кондером на 10000 мкф, все инструкции в интернете.

У кого флешка рандомно отваливается, всё дело в объёме, до 8гб держит очень стабильно, и любого производителя, всё что выше — лагает.

По теме, считаю отличная задумка, но дешевая (читай х**новая) реализация, а мог быть вполне годным продуктом.

Источник

SWAT CHR-4100

  • автомагнитола 2 DIN
  • навигатор с GPS
  • дисплей 7″
  • макс. мощность 4 x 50 Вт
  • аудиовход на передней панели
  • радиоприемник

Средний рейтинг SWAT CHR-4100 — 3,62
Всего известно о 13 отзывах о SWAT CHR-4100

Ищете положительные и негативные отзывы о SWAT CHR-4100?

Из 11 источников мы собрали 13 отрицательных, негативных и положительных отзывов.

Мы покажем все достоинства и недостатки SWAT CHR-4100 выявленные при использовании пользователями. Мы ничего не скрываем и размещаем все положительные и отрицательные честные отзывы покупателей о SWAT CHR-4100, а также предлагаем альтернативные товары аналоги. А стоит ли покупать — решение только за Вами!

Самые выгодные предложения по SWAT CHR-4100

Отзывы про SWAT CHR-4100

Достоинства:
Очень низкая цена; классное качество звука; много разнообразных настроек; простота в управлении; работает со многими форматами аудио и видео.

Недостатки:
Единственный минус, что не запоминает последний трек, который играл перед выключением. Или же я просто еще не нашел, как включить такую настройку.

Комментарий:
Отличная покупка за небольшую цену. Да, где-то есть небольшие недочеты в этой магнитоле, но низкая цена их все перекрывает!

Достоинства:
Цена. Хороший экран. Простая и удобная навигация. Сенсор работает нормально. Телефон подключается через блютуз без проблем. Есть слот под micro флешку.

Недостатки:
Эквалайзера можно сказать нету, для меломанов слушающих разные жанры ужасно. USB флешки через переходник подключается. Плохо работает микрофон хэндсфри.

Комментарий:
Работает, но честно говоря пожалел о покупке. Можно было чуть сэкономить и получить более качественный звук.

Достоинства:
Поддерживается много форматов, качественная сборка, недорогая цена

Комментарий:
Купила эту автомагнитолу в подарок брату, пользуется уже несколько месяцев, очень доволен. Магнитола поддерживает множество форматов, считывает файлы, как с флешки, так и с SD карты памяти, воспроизводит видео в довольно хорошем качестве. Хотела бы еще отметить классное качество сборки при недорогой цене. Магнитола по качеству даже лучше некоторых более дорогих моделей.

Достоинства:
Неплохой звук, всеядный.

Недостатки:
При воспроизведении видео, если нажать на иконку cvbs, экран ГУ гаснет и спасает только выключение-включение ГУ. Поставить свою картинку в качестве фона нельзя. Яркость подсветки кнопок и цвет не регулируется.

Комментарий:
Поставил в Хендай Туссан вместо штатной 2din. Стандартные установочные размеры, правда с креплением пришлось повозиться. В комплекте ISO разъемы. Пришлось только поменять местами красный и желтый провода питания, чтобы не слетали настройки. Качество звука неплохое. Мощности звука достаточно, шума в колонках на паузах нет. Регулировка тембра только по высоким и низким частотам. Читает все форматы видео и аудио без тормозов. Имеется 3 уровня регулировки яркости экрана, углы обзора хорошие. Неплохое разрешение экрана. Подключил заднюю и переднюю видеокамеры. Радио ловит неплохо, отзыв сенсора экрана вменяемый. Имеется слот для miсro USB карт, обычные флешки подключаются через переходник, который в комплекте. При сопряжении магнитолы с телефоном по блютусу сразу же начинается воспроизведение музыки с телефона, но функцию свободные руки подключить не удалось.Не понятно для чего в настройках есть часы, ведь время отображается только на начальном экране, да и то очень мелко.Можно установить один из трех предустановленных фона интерфейса.Имеется навигация по папкам.

READ  Toyota touch 2 обновление прошивки без модуля навигации

Недостатки:
Очень блеклый экран, всего три режима яркости, в процессе просмотра фильма режим автоматически переходит в более блеклый ,приходится обратно возвращать вручную.

Достоинства:
Хорошее качество за нормальную цену.

Комментарий:
Магнитола простая в использовании, меняется яркость экрана и что очень порадовало адаптируется к рулевым кнопкам! По блютуз можно и музыку передавать и разговаривать. Видео с флешки всех форматов воспроизводит. Из минусов отмечу подключение флешки через короткий переходник. Покупкой доволен!

Достоинства:
Преимущество в цене, в поддержании большого многообразия форматов как видео так и аудио — в частности flac. Простота в подключении. Неплохой дисплей.

Недостатки:
1) Самый главный для меня недостаток — это воспроизведение музыки с заиканием с sd карты (в видео звук так же заикается). Думаю что это проблема железа, а не прошивки. Хотел использовать именно sd карту т.к. она прячется за заглушку, а воспроизведение usb через шнурок смотрится не эстетично, постоянно болтается в разные стороны при движении. 2) Регулировка громкости, лучше бы была крутилка, реально долго прибавлять — убавлять этими кнопками. 3) Мало аудио настроек. 4) Долго включается после запуска зажигания.

Комментарий:
Поставил этот аппарат в Весту. В принципе за эти деньги неплохой вариант (покупал за 4900р.). Большой, достаточно качественный дисплей, неплохое качество звука (спасает поддержка flac). Подключил камеру заднего вида, все нормально работает, картинка четкая, радио принимает уверенно. Конечно есть небольшие недочеты, их указал в недостатках, но в целом цена оправдана. p.s. Для тех кто будет ставить на весту, переходные рамки подходят не все, лучше примерять непосредственно на магнитоле.

Достоинства:
Не дорогая, большой дисплей, хорошо звучит.

Комментарий:
Взял в рабочую машину, искал что-то не дорогое но с большим экраном чтобы и видео можно было посмотреть при желании, а не только музыку и радио слушать. В принципе считаю что не прогадал с выбором так как магнитола работает отлично и функционала ее мне более чем достаточно!

Достоинства:
Цена. Хорошее звучание. Удобное управление. GPS работает корректно.

Недостатки:
Нет джойстика на руль, но есть и он пульт удобный.

Комментарий:
Магнитолой я доволен, своих денег стоит, более именитые бренды заметно дороже. Тюнер ловит хорошо даже по трассе, с флешек читает все без проблем, навигация по папкам удобно реализована. Катаюсь с ней второй месяц, проблем с выключением или зависаниями не было, так что можно брать смело, модель хорошая.

Достоинства:
Цена. Самая дешевая 2-Din система с 7-ми дюймовым сенсорным дисплеем.
Дисплей отличный. Хорошие углы обзора и яркость. На солнце все прекрасно видно.
Качество звука хорошее для своих денег. Сенсор работает хорошо.
Не тормозит, не тупит.
По блютузу сразу же подцепилась и работает. Жрёт все популярные форматы видео.

Недостатки:
Мало настроек эквалайзера (только басы и высокие частоты). Для любителей идеального звука не подойдёт. Хотя изначально звук вполне ок.
После включения/выключения не запоминается последний источник и включается радио, при чем на приличной громкости.
Не нашел прошивок и прочего. Техподдержка моличт.

Комментарий:
В общем и целом, впечатления от покупки за такие деньги — «Вау».
Наконец кто-то смог сделать что-то бюджетное в этом сегменте устройств.
Но после некоторого времени использования появляется чувство «урезанности» сего устройства.
В будущем, конечно, хотелось бы приобрести на андройде, с доступом в интернет, GPS, возможностью подключить OBD II через блютуз и установки приложений.

Недостатки:
Звука нет вообще,видео начинает работать экран сразу не отзывается.раньше перематывалось переключались треки,сейчас видео не работает. Блютуз проигрывает музыку с тф,звонки плохо слышно тебя,микрофон г. о.купил на али блютуз за 260 рублей,размер флешки,всё слышно и музыку лучше проигрывает.

Комментарий:
не советую,да ещё за такие деньги.на али за 2,5 тыс купите такой же и всё будет работать в разы лучше.

Достоинства:
По блютузу легко соединяется.

Недостатки:
Кнопка включения не пережила зиму. Запада и для того чтобы вытащить надо разбирать. Поставил кнопку на место проработал ещё неделю. Опять кнопка провалилась. И теперь уже не включить. Выброшенные деньги.

Достоинства:
Заменил штатную голову в Кашкае. Звук чище, басов больше и звук громче. Дисплей отличный, дети смотрят мультики и радуются.

Недостатки:
нет лицевого полноценного USB. мало настроек эквалайзера.

Комментарий:
За эту цену наверное лучше нет.

Источник

Smartadm.ru